Time;durP1;ratioP1;P1;durP2;ratioP2;P2;SDS_P1;SDS_P2;PMS_P1;PMS_P2;Temp;Humidity;BMP_temperature;BMP_pressure;BME280_temperature;BME280_humidity;BME280_pressure;Samples;Min_cycle;Max_cycle;Signal;HPM_P1;HPM_P2
2024/04/14 00:00:49;;;;;;;8.48;6.47;;;;;;;;;;6795335;26;20009;-72
2024/04/14 00:03:56;;;;;;;11.88;6.25;;;;;;;;;;6784891;26;20017;-73
2024/04/14 00:06:59;;;;;;;9.35;6.40;;;;;;;;;;6783343;26;19998;-73
2024/04/14 00:10:02;;;;;;;7.72;5.75;;;;;;;;;;6790054;26;20017;-73
2024/04/14 00:13:05;;;;;;;8.68;6.28;;;;;;;;;;6755242;26;20070;-74
2024/04/14 00:16:07;;;;;;;9.70;6.97;;;;;;;;;;6805339;26;20016;-74
2024/04/14 00:19:10;;;;;;;9.95;5.88;;;;;;;;;;6806158;26;20002;-74
2024/04/14 00:22:13;;;;;;;8.23;5.70;;;;;;;;;;6774527;26;20018;-73
2024/04/14 00:25:16;;;;;;;10.75;6.55;;;;;;;;;;6821100;25;20009;-73
2024/04/14 00:28:18;;;;;;;11.50;8.57;;;;;;;;;;6786183;26;20493;-74
2024/04/14 00:31:21;;;;;;;9.00;6.32;;;;;;;;;;6808652;26;20548;-73
2024/04/14 00:34:24;;;;;;;9.93;7.60;;;;;;;;;;6777373;26;19998;-73
2024/04/14 00:37:26;;;;;;;9.02;7.07;;;;;;;;;;6786057;26;19998;-74
2024/04/14 00:40:29;;;;;;;10.60;6.65;;;;;;;;;;6798857;26;20384;-74
2024/04/14 00:43:31;;;;;;;11.25;6.70;;;;;;;;;;6788112;26;19994;-74
2024/04/14 00:46:36;;;;;;;12.85;7.88;;;;;;;;;;6790576;26;20464;-74
2024/04/14 00:49:39;;;;;;;11.60;7.85;;;;;;;;;;6790823;26;20083;-73
2024/04/14 00:52:41;;;;;;;12.63;7.63;;;;;;;;;;6794764;26;20684;-73
2024/04/14 00:55:45;;;;;;;15.13;7.35;;;;;;;;;;6814676;25;20034;-73
2024/04/14 00:58:48;;;;;;;9.43;6.53;;;;;;;;;;6780699;26;20006;-74
2024/04/14 01:01:50;;;;;;;11.30;7.18;;;;;;;;;;6792800;26;19998;-73
2024/04/14 01:04:53;;;;;;;10.07;5.97;;;;;;;;;;6814600;26;20001;-74
2024/04/14 01:07:57;;;;;;;15.60;7.05;;;;;;;;;;6795419;26;20037;-75
2024/04/14 01:11:00;;;;;;;10.15;6.80;;;;;;;;;;6784255;26;20006;-74
2024/04/14 01:14:07;;;;;;;13.07;10.23;;;;;;;;;;6788143;26;20457;-73
2024/04/14 01:17:09;;;;;;;10.15;7.43;;;;;;;;;;6793270;26;20006;-73
2024/04/14 01:20:14;;;;;;;7.07;5.90;;;;;;;;;;6828488;25;22421;-74
2024/04/14 01:23:17;;;;;;;8.07;6.85;;;;;;;;;;6793759;26;20016;-74
2024/04/14 01:26:20;;;;;;;10.90;9.70;;;;;;;;;;6788199;26;20002;-73
2024/04/14 01:29:23;;;;;;;12.25;10.18;;;;;;;;;;6788468;26;19999;-74
2024/04/14 01:32:25;;;;;;;11.35;10.05;;;;;;;;;;6792541;26;20031;-73
2024/04/14 01:35:28;;;;;;;9.88;7.35;;;;;;;;;;6782154;26;19999;-76
2024/04/14 01:38:30;;;;;;;9.32;7.95;;;;;;;;;;6796220;26;20901;-72
2024/04/14 01:41:33;;;;;;;9.95;5.97;;;;;;;;;;6781271;26;20009;-73
2024/04/14 01:44:35;;;;;;;9.63;6.88;;;;;;;;;;6794460;26;20017;-74
2024/04/14 01:47:38;;;;;;;10.68;9.65;;;;;;;;;;6785425;26;20047;-73
2024/04/14 01:50:41;;;;;;;19.02;8.43;;;;;;;;;;6796590;26;20074;-74
2024/04/14 01:53:43;;;;;;;9.98;7.25;;;;;;;;;;6790870;26;20012;-73
2024/04/14 01:56:46;;;;;;;11.43;6.57;;;;;;;;;;6791098;26;20021;-74
2024/04/14 01:59:48;;;;;;;10.23;7.13;;;;;;;;;;6803710;26;20484;-74
2024/04/14 02:02:54;;;;;;;11.05;6.78;;;;;;;;;;6788213;26;20003;-73
2024/04/14 02:05:58;;;;;;;9.65;6.07;;;;;;;;;;6796106;26;20015;-74
2024/04/14 02:09:00;;;;;;;12.00;9.13;;;;;;;;;;6828508;25;20078;-74
2024/04/14 02:12:03;;;;;;;9.30;7.13;;;;;;;;;;6788050;26;19998;-75
2024/04/14 02:15:05;;;;;;;9.30;6.22;;;;;;;;;;6806241;26;20013;-74
2024/04/14 02:18:08;;;;;;;9.82;6.88;;;;;;;;;;6774496;26;19998;-74
2024/04/14 02:21:11;;;;;;;8.95;6.88;;;;;;;;;;6796470;26;20053;-74
2024/04/14 02:24:14;;;;;;;10.02;9.13;;;;;;;;;;6776217;26;20732;-73
2024/04/14 02:27:16;;;;;;;10.27;6.97;;;;;;;;;;6795059;25;20361;-74
2024/04/14 02:30:19;;;;;;;9.68;6.45;;;;;;;;;;6802167;26;20075;-74
2024/04/14 02:33:21;;;;;;;10.15;7.45;;;;;;;;;;6810840;26;20061;-73
2024/04/14 02:36:27;;;;;;;11.00;9.90;;;;;;;;;;6792198;26;20013;-73
2024/04/14 02:39:30;;;;;;;10.90;5.57;;;;;;;;;;6733661;26;20070;-76
2024/04/14 02:42:35;;;;;;;9.10;5.55;;;;;;;;;;6784432;26;20918;-76
2024/04/14 02:45:37;;;;;;;;;;;;;;;;;;6781015;26;20154;-74
2024/04/14 02:48:40;;;;;;;8.07;5.75;;;;;;;;;;6807103;25;19968;-73
2024/04/14 02:51:43;;;;;;;10.25;6.13;;;;;;;;;;6799338;25;20371;-73
2024/04/14 02:54:46;;;;;;;10.13;6.70;;;;;;;;;;6811718;26;20009;-74
2024/04/14 02:57:49;;;;;;;9.00;7.32;;;;;;;;;;6790381;26;20003;-74
2024/04/14 03:01:01;;;;;;;7.43;5.72;;;;;;;;;;6800237;26;20002;-74
2024/04/14 03:04:05;;;;;;;9.80;6.07;;;;;;;;;;6808991;26;20009;-73
2024/04/14 03:07:08;;;;;;;8.27;5.78;;;;;;;;;;6788725;26;20013;-73
2024/04/14 03:10:12;;;;;;;9.15;6.65;;;;;;;;;;6768987;26;19998;-73
2024/04/14 03:13:14;;;;;;;8.98;8.07;;;;;;;;;;6797793;26;19998;-74
2024/04/14 03:16:17;;;;;;;11.60;9.18;;;;;;;;;;6758886;26;19999;-73
2024/04/14 03:19:20;;;;;;;7.38;5.90;;;;;;;;;;6808488;26;20020;-76
2024/04/14 03:22:22;;;;;;;10.68;6.47;;;;;;;;;;6797815;26;20010;-74
2024/04/14 03:25:25;;;;;;;14.02;6.50;;;;;;;;;;6793337;26;20131;-74
2024/04/14 03:28:28;;;;;;;11.27;9.68;;;;;;;;;;6802510;26;19998;-74
2024/04/14 03:31:30;;;;;;;10.38;6.53;;;;;;;;;;6812209;25;20009;-73
2024/04/14 03:34:34;;;;;;;9.88;8.55;;;;;;;;;;6788698;26;20006;-74
2024/04/14 03:37:40;;;;;;;8.07;6.63;;;;;;;;;;6788895;26;20006;-73
2024/04/14 03:40:44;;;;;;;9.65;8.38;;;;;;;;;;6780097;26;20009;-73
2024/04/14 03:43:46;;;;;;;11.80;7.18;;;;;;;;;;6810445;25;20009;-74
2024/04/14 03:46:49;;;;;;;9.70;6.80;;;;;;;;;;6799055;26;20128;-74
2024/04/14 03:49:55;;;;;;;10.63;6.35;;;;;;;;;;6795739;26;20850;-73
2024/04/14 03:52:58;;;;;;;9.68;8.50;;;;;;;;;;6816213;26;20018;-74
2024/04/14 03:56:00;;;;;;;9.30;8.15;;;;;;;;;;6751678;26;20490;-73
2024/04/14 03:59:05;;;;;;;11.95;6.78;;;;;;;;;;6784375;26;20465;-74
2024/04/14 04:02:08;;;;;;;12.43;10.05;;;;;;;;;;6785165;26;20002;-74
2024/04/14 04:05:11;;;;;;;10.55;7.10;;;;;;;;;;6777633;26;20985;-74
2024/04/14 04:08:13;;;;;;;11.35;7.68;;;;;;;;;;6776799;26;20045;-74
2024/04/14 04:11:16;;;;;;;14.07;9.82;;;;;;;;;;6731812;26;20006;-74
2024/04/14 04:14:19;;;;;;;11.40;8.68;;;;;;;;;;6759778;26;20007;-74
2024/04/14 04:17:21;;;;;;;11.80;10.60;;;;;;;;;;6782764;26;20013;-75
2024/04/14 04:20:24;;;;;;;14.93;10.18;;;;;;;;;;6770795;26;20046;-74
2024/04/14 04:23:27;;;;;;;12.10;6.40;;;;;;;;;;6754040;26;20022;-74
2024/04/14 04:26:30;;;;;;;13.27;9.73;;;;;;;;;;6786860;26;20009;-74
2024/04/14 04:29:33;;;;;;;9.80;7.60;;;;;;;;;;6795598;26;20078;-73
2024/04/14 04:32:35;;;;;;;10.00;6.88;;;;;;;;;;6782753;26;20006;-73
2024/04/14 04:35:54;;;;;;;7.82;6.10;;;;;;;;;;6775793;26;20011;-73
2024/04/14 04:39:03;;;;;;;10.88;7.13;;;;;;;;;;6780900;26;20009;-73
2024/04/14 04:42:06;;;;;;;16.33;10.35;;;;;;;;;;6789821;26;20569;-73
2024/04/14 04:45:09;;;;;;;10.65;7.57;;;;;;;;;;6792175;26;20463;-74
2024/04/14 04:48:11;;;;;;;14.02;10.23;;;;;;;;;;6786372;26;20005;-73
2024/04/14 04:51:14;;;;;;;14.85;10.48;;;;;;;;;;6792601;26;19998;-74
2024/04/14 04:54:17;;;;;;;14.57;12.43;;;;;;;;;;6791477;26;20497;-73
2024/04/14 04:57:19;;;;;;;15.20;7.72;;;;;;;;;;6791710;26;20036;-74
2024/04/14 05:00:22;;;;;;;11.38;7.88;;;;;;;;;;6757216;26;20042;-74
2024/04/14 05:03:25;;;;;;;13.82;7.25;;;;;;;;;;6773618;26;20035;-74
2024/04/14 05:06:33;;;;;;;11.25;7.43;;;;;;;;;;6766232;26;20006;-74
2024/04/14 05:09:36;;;;;;;14.40;7.82;;;;;;;;;;6806321;25;20002;-73
2024/04/14 05:12:39;;;;;;;11.05;8.07;;;;;;;;;;6770784;26;20019;-74
2024/04/14 05:15:43;;;;;;;11.93;7.38;;;;;;;;;;6767981;26;20033;-73
2024/04/14 05:18:46;;;;;;;9.50;7.80;;;;;;;;;;6779038;26;20011;-73
2024/04/14 05:21:48;;;;;;;12.30;8.55;;;;;;;;;;6797167;26;20010;-74
2024/04/14 05:24:51;;;;;;;12.05;7.70;;;;;;;;;;6788722;26;20013;-74
2024/04/14 05:27:54;;;;;;;16.13;7.35;;;;;;;;;;6782588;26;20095;-74
2024/04/14 05:30:57;;;;;;;14.00;8.40;;;;;;;;;;6780270;26;20051;-74
2024/04/14 05:33:59;;;;;;;13.18;8.90;;;;;;;;;;6793759;26;20022;-73
2024/04/14 05:37:02;;;;;;;13.30;11.35;;;;;;;;;;6801404;26;20802;-73
2024/04/14 05:40:06;;;;;;;18.02;8.05;;;;;;;;;;6779746;26;20093;-74
2024/04/14 05:43:09;;;;;;;7.47;6.25;;;;;;;;;;6797185;26;20005;-74
2024/04/14 05:46:12;;;;;;;10.80;7.70;;;;;;;;;;6768887;26;20054;-74
2024/04/14 05:49:14;;;;;;;10.95;6.68;;;;;;;;;;6782350;26;20022;-74
2024/04/14 05:52:21;;;;;;;10.23;6.75;;;;;;;;;;6776568;26;20006;-74
2024/04/14 05:55:24;;;;;;;11.32;7.38;;;;;;;;;;6770720;26;20017;-74
2024/04/14 05:58:27;;;;;;;11.02;6.68;;;;;;;;;;6781967;25;20042;-74
2024/04/14 06:01:30;;;;;;;10.73;6.85;;;;;;;;;;6772539;26;20003;-74
2024/04/14 06:04:32;;;;;;;10.05;7.07;;;;;;;;;;6751314;26;20019;-73
2024/04/14 06:07:35;;;;;;;13.93;7.88;;;;;;;;;;6761252;26;20010;-74
2024/04/14 06:10:39;;;;;;;9.43;6.88;;;;;;;;;;6751127;26;20018;-72
2024/04/14 06:13:42;;;;;;;13.00;8.23;;;;;;;;;;6765216;26;20852;-73
2024/04/14 06:16:45;;;;;;;8.93;6.95;;;;;;;;;;6757686;26;20095;-74
2024/04/14 06:19:48;;;;;;;8.98;6.70;;;;;;;;;;6790381;26;20593;-73
2024/04/14 06:22:50;;;;;;;10.85;7.70;;;;;;;;;;6781425;26;20096;-73
2024/04/14 06:25:53;;;;;;;12.77;6.30;;;;;;;;;;6755309;26;20017;-73
2024/04/14 06:28:56;;;;;;;11.32;7.95;;;;;;;;;;6793900;26;20005;-73
2024/04/14 06:31:58;;;;;;;12.65;7.90;;;;;;;;;;6789250;26;20362;-73
2024/04/14 06:35:01;;;;;;;11.85;7.82;;;;;;;;;;6762788;26;20017;-73
2024/04/14 06:38:05;;;;;;;10.38;6.38;;;;;;;;;;6783116;26;19998;-73
2024/04/14 06:41:08;;;;;;;9.85;6.07;;;;;;;;;;6777908;26;20072;-73
2024/04/14 06:44:10;;;;;;;10.07;7.03;;;;;;;;;;6808231;26;20006;-73
2024/04/14 06:47:13;;;;;;;10.15;5.97;;;;;;;;;;6760658;26;20009;-73
2024/04/14 06:50:15;;;;;;;8.40;5.93;;;;;;;;;;6766537;26;21046;-73
2024/04/14 06:53:20;;;;;;;10.27;6.55;;;;;;;;;;6782833;26;20009;-74
2024/04/14 06:56:24;;;;;;;10.40;6.60;;;;;;;;;;6780386;26;20018;-74
2024/04/14 06:59:26;;;;;;;10.30;5.43;;;;;;;;;;6790055;26;20006;-74
2024/04/14 07:02:29;;;;;;;17.30;6.82;;;;;;;;;;6793207;26;20066;-72
2024/04/14 07:05:31;;;;;;;14.10;6.35;;;;;;;;;;6810572;26;20155;-73
2024/04/14 07:08:34;;;;;;;9.70;6.05;;;;;;;;;;6829820;25;20003;-74
2024/04/14 07:11:37;;;;;;;9.75;6.28;;;;;;;;;;6801445;26;21046;-73
2024/04/14 07:14:39;;;;;;;9.05;7.50;;;;;;;;;;6807574;26;20504;-74
2024/04/14 07:17:42;;;;;;;8.23;6.32;;;;;;;;;;6792751;26;19999;-73
2024/04/14 07:20:45;;;;;;;12.02;7.78;;;;;;;;;;6801958;26;20025;-75
2024/04/14 07:23:47;;;;;;;8.48;6.28;;;;;;;;;;6797991;26;20012;-73
2024/04/14 07:26:50;;;;;;;7.30;3.30;;;;;;;;;;6805149;26;20013;-73
2024/04/14 07:29:52;;;;;;;9.65;4.65;;;;;;;;;;6791827;26;20016;-73
2024/04/14 07:32:56;;;;;;;20.67;5.03;;;;;;;;;;6794013;26;19994;-73
2024/04/14 07:36:01;;;;;;;9.35;6.57;;;;;;;;;;6795168;26;20781;-73
2024/04/14 07:39:04;;;;;;;7.85;5.00;;;;;;;;;;6789891;26;20088;-73
2024/04/14 07:42:08;;;;;;;9.52;8.65;;;;;;;;;;6789620;26;20516;-73
2024/04/14 07:45:11;;;;;;;8.13;4.47;;;;;;;;;;6793922;26;20002;-73
2024/04/14 07:48:13;;;;;;;7.20;3.67;;;;;;;;;;6764976;26;20002;-73
2024/04/14 07:51:16;;;;;;;9.27;5.50;;;;;;;;;;6803242;26;20787;-73
2024/04/14 07:54:19;;;;;;;6.13;3.50;;;;;;;;;;6777263;26;20106;-74
2024/04/14 07:57:21;;;;;;;9.40;4.20;;;;;;;;;;6772333;26;19993;-73
2024/04/14 08:00:24;;;;;;;8.32;4.75;;;;;;;;;;6771629;26;20042;-73
2024/04/14 08:03:26;;;;;;;12.27;3.95;;;;;;;;;;6820481;26;20017;-73
2024/04/14 08:06:38;;;;;;;7.10;3.40;;;;;;;;;;6789500;26;20002;-73
2024/04/14 08:09:40;;;;;;;10.10;5.20;;;;;;;;;;6794828;25;20082;-73
2024/04/14 08:12:43;;;;;;;7.05;4.05;;;;;;;;;;6785101;26;20002;-73
2024/04/14 08:15:45;;;;;;;7.22;3.47;;;;;;;;;;6799274;26;20042;-73
2024/04/14 08:18:48;;;;;;;7.43;2.88;;;;;;;;;;6781471;26;20019;-74
2024/04/14 08:21:50;;;;;;;5.97;3.67;;;;;;;;;;6743234;26;20017;-73
2024/04/14 08:24:53;;;;;;;5.25;3.05;;;;;;;;;;6784735;26;20017;-73
2024/04/14 08:27:56;;;;;;;4.63;2.67;;;;;;;;;;6796751;26;20001;-73
2024/04/14 08:30:58;;;;;;;6.05;3.97;;;;;;;;;;6800232;26;20014;-73
2024/04/14 08:34:02;;;;;;;5.65;3.22;;;;;;;;;;6774255;26;20078;-73
2024/04/14 08:37:11;;;;;;;5.80;3.42;;;;;;;;;;6756911;26;20002;-73
2024/04/14 08:40:14;;;;;;;8.18;3.85;;;;;;;;;;6783354;26;20020;-73
2024/04/14 08:43:16;;;;;;;3.58;2.05;;;;;;;;;;6763642;26;20002;-73
2024/04/14 08:46:21;;;;;;;7.75;3.47;;;;;;;;;;6781418;26;20016;-73
2024/04/14 08:49:24;;;;;;;5.72;5.20;;;;;;;;;;6768847;26;20528;-74
2024/04/14 08:52:27;;;;;;;5.15;3.78;;;;;;;;;;6789791;26;20460;-73
2024/04/14 08:55:29;;;;;;;9.48;3.58;;;;;;;;;;6789568;26;19998;-73
2024/04/14 08:58:33;;;;;;;5.28;3.00;;;;;;;;;;6761376;26;20054;-73
2024/04/14 09:01:36;;;;;;;5.95;4.53;;;;;;;;;;6790840;26;20728;-73
2024/04/14 09:04:42;;;;;;;9.48;3.92;;;;;;;;;;6792240;26;20002;-74
2024/04/14 09:07:44;;;;;;;3.22;1.83;;;;;;;;;;6774032;26;20012;-73
2024/04/14 09:10:47;;;;;;;4.65;2.83;;;;;;;;;;6777102;26;20455;-74
2024/04/14 09:13:50;;;;;;;6.68;2.53;;;;;;;;;;6796139;26;20009;-74
2024/04/14 09:16:53;;;;;;;6.50;3.50;;;;;;;;;;6745424;26;19999;-75
2024/04/14 09:19:56;;;;;;;4.53;2.80;;;;;;;;;;6792787;26;20042;-74
2024/04/14 09:22:58;;;;;;;7.22;3.15;;;;;;;;;;6764328;26;20014;-75
2024/04/14 09:26:05;;;;;;;5.20;2.38;;;;;;;;;;6774298;26;20021;-74
2024/04/14 09:29:08;;;;;;;5.78;2.63;;;;;;;;;;6794745;26;20577;-72
2024/04/14 09:32:11;;;;;;;5.20;2.50;;;;;;;;;;6778507;26;20021;-72
2024/04/14 09:35:15;;;;;;;5.45;2.25;;;;;;;;;;6783504;26;20453;-73
2024/04/14 09:38:18;;;;;;;5.50;2.67;;;;;;;;;;6774834;26;20025;-73
2024/04/14 09:41:21;;;;;;;5.10;2.75;;;;;;;;;;6743668;26;20467;-73
2024/04/14 09:44:26;;;;;;;4.70;2.33;;;;;;;;;;6792927;26;20002;-72
2024/04/14 09:47:29;;;;;;;6.00;2.20;;;;;;;;;;6779349;26;20557;-73
2024/04/14 09:50:34;;;;;;;8.00;4.80;;;;;;;;;;6774909;26;20493;-73
2024/04/14 09:53:37;;;;;;;4.57;2.28;;;;;;;;;;6752978;26;20499;-73
2024/04/14 09:56:41;;;;;;;5.38;2.25;;;;;;;;;;6746960;26;20018;-74
2024/04/14 09:59:43;;;;;;;6.50;2.20;;;;;;;;;;6813432;25;20432;-73
2024/04/14 10:03:01;;;;;;;5.10;2.05;;;;;;;;;;6776240;26;20024;-74
2024/04/14 10:06:05;;;;;;;5.75;1.83;;;;;;;;;;6758868;26;20034;-74
2024/04/14 10:09:11;;;;;;;4.50;2.25;;;;;;;;;;6745427;26;20073;-74
2024/04/14 10:12:20;;;;;;;6.30;2.45;;;;;;;;;;6772195;26;20008;-74
2024/04/14 10:15:25;;;;;;;4.60;1.88;;;;;;;;;;6766012;26;20017;-73
2024/04/14 10:18:33;;;;;;;5.65;2.70;;;;;;;;;;6745178;26;20194;-73
2024/04/14 10:21:36;;;;;;;3.25;2.35;;;;;;;;;;6787895;26;20014;-73
2024/04/14 10:24:48;;;;;;;5.35;1.08;;;;;;;;;;6793464;26;20077;-74
2024/04/14 10:27:51;;;;;;;3.20;1.67;;;;;;;;;;6793361;26;20014;-74
2024/04/14 10:31:01;;;;;;;4.00;1.77;;;;;;;;;;6804057;26;20010;-74
2024/04/14 10:34:09;;;;;;;2.83;1.45;;;;;;;;;;6829962;25;20074;-74
2024/04/14 10:37:24;;;;;;;4.25;1.77;;;;;;;;;;6780460;26;20621;-72
2024/04/14 10:40:27;;;;;;;5.20;1.52;;;;;;;;;;6827640;25;20002;-73
2024/04/14 10:43:29;;;;;;;4.40;1.88;;;;;;;;;;6787973;26;20043;-73
2024/04/14 10:46:33;;;;;;;4.00;1.80;;;;;;;;;;6791531;25;20472;-74
2024/04/14 10:49:36;;;;;;;3.67;1.42;;;;;;;;;;6788510;25;20570;-73
2024/04/14 10:52:38;;;;;;;5.93;2.70;;;;;;;;;;6783741;26;20558;-73
2024/04/14 10:55:41;;;;;;;3.70;1.70;;;;;;;;;;6779843;26;20570;-74
2024/04/14 10:58:43;;;;;;;7.47;2.10;;;;;;;;;;6773598;26;20063;-74
2024/04/14 11:01:46;;;;;;;5.78;1.90;;;;;;;;;;6798064;26;20800;-73
2024/04/14 11:04:53;;;;;;;6.95;1.88;;;;;;;;;;6783404;26;20003;-74
2024/04/14 11:07:55;;;;;;;7.78;1.80;;;;;;;;;;6771832;26;20852;-74
2024/04/14 11:10:58;;;;;;;5.60;1.88;;;;;;;;;;6805487;26;20001;-73
2024/04/14 11:14:02;;;;;;;5.15;1.70;;;;;;;;;;6754982;26;19994;-73
2024/04/14 11:17:10;;;;;;;3.63;1.70;;;;;;;;;;6745777;26;20048;-74
2024/04/14 11:20:13;;;;;;;3.28;1.45;;;;;;;;;;6787841;26;20018;-72
2024/04/14 11:23:16;;;;;;;36.78;24.30;;;;;;;;;;6747646;26;20029;-73
2024/04/14 11:26:19;;;;;;;3.20;2.35;;;;;;;;;;6778070;26;20518;-73
2024/04/14 11:29:23;;;;;;;5.53;1.55;;;;;;;;;;6744152;26;20075;-73
2024/04/14 11:32:35;;;;;;;3.30;1.50;;;;;;;;;;6784670;26;20010;-74
2024/04/14 11:35:39;;;;;;;4.25;2.67;;;;;;;;;;6830478;25;20010;-71
2024/04/14 11:38:41;;;;;;;5.35;1.85;;;;;;;;;;6741346;26;19995;-72
2024/04/14 11:41:44;;;;;;;4.75;1.80;;;;;;;;;;6823995;25;20344;-74
2024/04/14 11:44:47;;;;;;;7.65;2.95;;;;;;;;;;6775261;26;20040;-73
2024/04/14 11:47:50;;;;;;;4.35;1.77;;;;;;;;;;6782148;26;20011;-73
2024/04/14 11:50:52;;;;;;;4.90;1.77;;;;;;;;;;6752520;26;20038;-73
2024/04/14 11:53:55;;;;;;;3.33;1.52;;;;;;;;;;6784511;26;20007;-73
2024/04/14 11:56:57;;;;;;;7.97;2.28;;;;;;;;;;6777316;26;19998;-73
2024/04/14 12:00:00;;;;;;;3.95;1.40;;;;;;;;;;6791091;26;20002;-73
2024/04/14 12:03:03;;;;;;;6.78;1.75;;;;;;;;;;6789965;26;19998;-73
2024/04/14 12:06:06;;;;;;;4.03;2.25;;;;;;;;;;6769371;26;20020;-74
2024/04/14 12:09:11;;;;;;;4.28;1.42;;;;;;;;;;6790356;26;20052;-74
2024/04/14 12:12:15;;;;;;;5.05;1.75;;;;;;;;;;6787726;26;20009;-73
2024/04/14 12:15:18;;;;;;;6.13;2.08;;;;;;;;;;6787396;26;20010;-73
2024/04/14 12:18:20;;;;;;;4.40;1.45;;;;;;;;;;6839420;25;20009;-73
2024/04/14 12:21:23;;;;;;;6.75;1.75;;;;;;;;;;6828190;25;20070;-73
2024/04/14 12:24:28;;;;;;;5.70;1.30;;;;;;;;;;6782670;26;20044;-73
2024/04/14 12:27:31;;;;;;;5.22;1.63;;;;;;;;;;6773549;26;20012;-73
2024/04/14 12:30:36;;;;;;;3.80;1.70;;;;;;;;;;6776425;26;20072;-73
2024/04/14 12:33:51;;;;;;;5.20;1.20;;;;;;;;;;6693739;26;20003;-73
2024/04/14 12:36:54;;;;;;;3.15;1.25;;;;;;;;;;6837278;25;20005;-73
2024/04/14 12:39:57;;;;;;;6.20;1.38;;;;;;;;;;6761341;26;19999;-73
2024/04/14 12:42:59;;;;;;;8.82;1.58;;;;;;;;;;6799353;26;20017;-73
2024/04/14 12:46:02;;;;;;;4.78;1.92;;;;;;;;;;6776088;26;20495;-74
2024/04/14 12:49:06;;;;;;;5.22;1.40;;;;;;;;;;6753146;26;20021;-74
2024/04/14 12:52:09;;;;;;;3.88;1.38;;;;;;;;;;6791508;26;20375;-73
2024/04/14 12:55:14;;;;;;;5.13;1.75;;;;;;;;;;6764988;26;20465;-74
2024/04/14 12:58:17;;;;;;;4.53;1.35;;;;;;;;;;6783842;26;20006;-74
2024/04/14 13:01:19;;;;;;;3.50;1.25;;;;;;;;;;6766607;26;19998;-74
2024/04/14 13:04:23;;;;;;;4.40;1.63;;;;;;;;;;6784246;26;20031;-74
2024/04/14 13:07:26;;;;;;;2.38;1.00;;;;;;;;;;6728755;26;20758;-73
2024/04/14 13:10:29;;;;;;;5.47;1.10;;;;;;;;;;6801542;26;20037;-73
2024/04/14 13:13:32;;;;;;;3.58;1.33;;;;;;;;;;6788006;26;20002;-73
2024/04/14 13:16:34;;;;;;;2.70;0.90;;;;;;;;;;6788479;26;20068;-74
2024/04/14 13:19:37;;;;;;;4.28;1.33;;;;;;;;;;6790316;26;19998;-74
2024/04/14 13:22:41;;;;;;;3.58;1.42;;;;;;;;;;6774933;26;20068;-74
2024/04/14 13:25:44;;;;;;;5.38;1.42;;;;;;;;;;6785531;26;20013;-73
2024/04/14 13:28:47;;;;;;;4.40;1.65;;;;;;;;;;6789492;26;19998;-74
2024/04/14 13:31:49;;;;;;;3.25;1.58;;;;;;;;;;6767510;26;19995;-74
2024/04/14 13:34:52;;;;;;;3.15;0.93;;;;;;;;;;6799057;26;20075;-73
2024/04/14 13:37:55;;;;;;;4.18;1.50;;;;;;;;;;6774699;26;20021;-74
2024/04/14 13:41:07;;;;;;;5.60;1.73;;;;;;;;;;6821469;25;20013;-74
2024/04/14 13:44:09;;;;;;;4.45;1.65;;;;;;;;;;6777753;26;19998;-74
2024/04/14 13:47:12;;;;;;;4.10;1.40;;;;;;;;;;6784154;26;20043;-74
2024/04/14 13:50:18;;;;;;;4.88;1.35;;;;;;;;;;6728974;26;19998;-75
2024/04/14 13:53:20;;;;;;;3.28;1.17;;;;;;;;;;6799317;25;20030;-74
2024/04/14 13:56:23;;;;;;;10.10;1.63;;;;;;;;;;6807003;25;20119;-75
2024/04/14 13:59:26;;;;;;;4.88;1.25;;;;;;;;;;6727197;26;20496;-74
2024/04/14 14:02:28;;;;;;;4.05;2.00;;;;;;;;;;6756628;26;20006;-74
2024/04/14 14:05:31;;;;;;;2.42;1.35;;;;;;;;;;6775992;26;20056;-75
2024/04/14 14:08:34;;;;;;;5.53;1.40;;;;;;;;;;6843091;25;20002;-74
2024/04/14 14:11:36;;;;;;;2.65;0.95;;;;;;;;;;6788444;26;20103;-74
2024/04/14 14:14:39;;;;;;;3.33;1.10;;;;;;;;;;6783057;26;19999;-74
2024/04/14 14:17:42;;;;;;;13.23;1.73;;;;;;;;;;6786961;26;20002;-75
2024/04/14 14:20:44;;;;;;;3.28;1.20;;;;;;;;;;6770099;26;20069;-74
2024/04/14 14:23:47;;;;;;;1.85;0.70;;;;;;;;;;6784203;26;20013;-74
2024/04/14 14:26:52;;;;;;;8.63;1.85;;;;;;;;;;6789296;26;20874;-74
2024/04/14 14:29:56;;;;;;;2.67;1.23;;;;;;;;;;6833587;25;20079;-74
2024/04/14 14:36:18;;;;;;;4.72;1.05;;;;;;;;;;6757831;26;20339;-74
2024/04/14 14:36:29;;;;;;;3.47;0.73;;;;;;;;;;6781202;26;20533;-74
2024/04/14 14:39:32;;;;;;;3.17;1.08;;;;;;;;;;6784924;26;20002;-75
2024/04/14 14:42:35;;;;;;;2.90;0.88;;;;;;;;;;6785846;26;19998;-74
2024/04/14 14:45:40;;;;;;;4.05;2.28;;;;;;;;;;6773729;26;20552;-75
2024/04/14 14:48:44;;;;;;;4.97;1.35;;;;;;;;;;6768095;26;20423;-75
2024/04/14 14:51:48;;;;;;;2.80;1.30;;;;;;;;;;6776002;26;20627;-75
2024/04/14 14:54:50;;;;;;;4.70;1.52;;;;;;;;;;6779655;26;20002;-74
2024/04/14 14:57:53;;;;;;;3.78;1.52;;;;;;;;;;6799933;26;20010;-74
2024/04/14 15:00:56;;;;;;;4.20;1.55;;;;;;;;;;6775091;26;20003;-74
2024/04/14 15:03:59;;;;;;;3.67;1.38;;;;;;;;;;6789806;26;20093;-74
2024/04/14 15:07:02;;;;;;;5.38;1.15;;;;;;;;;;6765390;26;19998;-74
2024/04/14 15:10:05;;;;;;;4.07;1.08;;;;;;;;;;6746333;26;20006;-74
2024/04/14 15:13:07;;;;;;;5.65;1.02;;;;;;;;;;6818086;26;20014;-74
2024/04/14 15:16:12;;;;;;;3.92;1.08;;;;;;;;;;6774470;26;20007;-74
2024/04/14 15:19:14;;;;;;;4.15;1.00;;;;;;;;;;6799003;26;19997;-74
2024/04/14 15:22:17;;;;;;;3.13;1.30;;;;;;;;;;6777016;26;19998;-73
2024/04/14 15:25:23;;;;;;;5.80;1.08;;;;;;;;;;6780139;26;20048;-74
2024/04/14 15:28:25;;;;;;;3.40;1.05;;;;;;;;;;6783316;26;20002;-74
2024/04/14 15:31:32;;;;;;;3.63;1.13;;;;;;;;;;6849721;25;20010;-74
2024/04/14 15:34:35;;;;;;;4.55;1.10;;;;;;;;;;6825404;25;20901;-74
2024/04/14 15:37:37;;;;;;;5.75;0.77;;;;;;;;;;6803989;26;20012;-74
2024/04/14 15:40:43;;;;;;;5.70;1.20;;;;;;;;;;6763716;26;20083;-74
2024/04/14 15:43:45;;;;;;;5.63;1.00;;;;;;;;;;6818626;26;20051;-74
2024/04/14 15:46:49;;;;;;;3.92;1.05;;;;;;;;;;6783897;26;19998;-73
2024/04/14 15:49:52;;;;;;;4.93;1.30;;;;;;;;;;6820303;25;20454;-74
2024/04/14 15:52:55;;;;;;;4.63;2.00;;;;;;;;;;6809404;26;20480;-74
2024/04/14 15:56:01;;;;;;;6.63;1.70;;;;;;;;;;6790333;26;20005;-74
2024/04/14 15:59:04;;;;;;;3.22;1.25;;;;;;;;;;6773407;26;20042;-74
2024/04/14 16:02:07;;;;;;;3.28;1.02;;;;;;;;;;6797259;26;20006;-74
2024/04/14 16:05:10;;;;;;;7.28;1.40;;;;;;;;;;6778075;26;20161;-73
2024/04/14 16:08:14;;;;;;;4.93;1.45;;;;;;;;;;6791178;26;20471;-74
2024/04/14 16:11:21;;;;;;;2.97;0.82;;;;;;;;;;6807605;26;20470;-75
2024/04/14 16:14:26;;;;;;;5.72;1.90;;;;;;;;;;6793804;26;20014;-72
2024/04/14 16:17:28;;;;;;;4.22;1.15;;;;;;;;;;6792268;26;20012;-73
2024/04/14 16:20:33;;;;;;;6.88;1.23;;;;;;;;;;6788730;26;19998;-73
2024/04/14 16:23:42;;;;;;;2.10;1.17;;;;;;;;;;6800691;26;20021;-74
2024/04/14 16:26:46;;;;;;;4.13;1.48;;;;;;;;;;6770555;26;20003;-72
2024/04/14 16:29:49;;;;;;;7.30;1.25;;;;;;;;;;6776184;25;20014;-72
2024/04/14 16:32:52;;;;;;;6.85;2.20;;;;;;;;;;6784602;26;20002;-73
2024/04/14 16:35:55;;;;;;;5.88;1.45;;;;;;;;;;6779449;26;20009;-73
2024/04/14 16:39:00;;;;;;;5.22;1.20;;;;;;;;;;6799383;26;20014;-73
2024/04/14 16:42:06;;;;;;;7.07;1.50;;;;;;;;;;6783023;26;20002;-73
2024/04/14 16:45:09;;;;;;;3.80;1.33;;;;;;;;;;6782228;26;20015;-73
2024/04/14 16:48:12;;;;;;;10.98;2.03;;;;;;;;;;6789252;26;20013;-74
2024/04/14 16:51:16;;;;;;;6.68;1.40;;;;;;;;;;6778784;26;20010;-74
2024/04/14 16:54:19;;;;;;;5.88;2.03;;;;;;;;;;6759864;26;20009;-73
2024/04/14 16:57:22;;;;;;;8.32;1.85;;;;;;;;;;6795220;26;20005;-73
2024/04/14 17:00:26;;;;;;;5.82;1.40;;;;;;;;;;6797687;25;20018;-72
2024/04/14 17:03:28;;;;;;;;;;;;;;;;;;6802693;26;20978;-73
2024/04/14 17:06:32;;;;;;;6.60;1.55;;;;;;;;;;6808938;26;19939;-74
2024/04/14 17:09:35;;;;;;;9.25;2.08;;;;;;;;;;6800943;26;20016;-72
2024/04/14 17:12:39;;;;;;;5.00;1.52;;;;;;;;;;6782642;26;20016;-73
2024/04/14 17:15:41;;;;;;;9.38;1.45;;;;;;;;;;6791535;26;19998;-73
2024/04/14 17:18:44;;;;;;;5.32;1.92;;;;;;;;;;6799971;26;20495;-73
2024/04/14 17:21:47;;;;;;;4.93;1.50;;;;;;;;;;6798325;25;20047;-73
2024/04/14 17:24:50;;;;;;;5.30;1.67;;;;;;;;;;6798835;25;20056;-72
2024/04/14 17:27:54;;;;;;;3.55;1.65;;;;;;;;;;6789171;26;20097;-74
2024/04/14 17:30:57;;;;;;;4.05;1.67;;;;;;;;;;6789528;26;20017;-73
2024/04/14 17:34:00;;;;;;;7.63;1.15;;;;;;;;;;6796198;26;20021;-74
2024/04/14 17:37:08;;;;;;;4.50;1.88;;;;;;;;;;6782194;26;20013;-73
2024/04/14 17:40:12;;;;;;;5.30;1.58;;;;;;;;;;6787484;26;20888;-72
2024/04/14 17:43:15;;;;;;;4.00;1.60;;;;;;;;;;6774896;26;20009;-73
2024/04/14 17:46:18;;;;;;;4.95;1.55;;;;;;;;;;6784521;26;20047;-73
2024/04/14 17:49:20;;;;;;;5.47;2.17;;;;;;;;;;6781400;26;20018;-73
2024/04/14 17:52:23;;;;;;;5.20;2.20;;;;;;;;;;6795554;25;19998;-73
2024/04/14 17:55:27;;;;;;;7.03;1.90;;;;;;;;;;6786686;26;20083;-75
2024/04/14 17:58:29;;;;;;;4.45;2.33;;;;;;;;;;6789925;26;20598;-73
2024/04/14 18:01:32;;;;;;;7.35;2.10;;;;;;;;;;6806363;25;20010;-73
2024/04/14 18:04:35;;;;;;;6.20;1.60;;;;;;;;;;6790627;26;20125;-74
2024/04/14 18:07:38;;;;;;;5.18;1.42;;;;;;;;;;6780614;26;20425;-72
2024/04/14 18:10:42;;;;;;;7.43;2.47;;;;;;;;;;6782194;26;20002;-72
2024/04/14 18:13:45;;;;;;;5.05;2.63;;;;;;;;;;6757410;26;20009;-72
2024/04/14 18:16:49;;;;;;;8.88;2.95;;;;;;;;;;6789001;26;20017;-72